Time;durP1;ratioP1;P1;durP2;ratioP2;P2;SDS_P1;SDS_P2;PMS_P1;PMS_P2;Temp;Humidity;BMP_temperature;BMP_pressure;BME280_temperature;BME280_humidity;BME280_pressure;Samples;Min_cycle;Max_cycle;Signal;HPM_P1;HPM_P2
2021/04/03 00:00:29;;;;;;;28.08;7.30;;;6.90;45.10;;;;;;5022865;28;20943;-76
2021/04/03 00:02:56;;;;;;;28.80;7.25;;;6.80;46.00;;;;;;5012230;28;20385;-76
2021/04/03 00:05:23;;;;;;;20.25;6.10;;;6.80;46.80;;;;;;5013408;28;20396;-77
2021/04/03 00:07:50;;;;;;;25.67;7.55;;;6.70;47.40;;;;;;5013245;28;20435;-77
2021/04/03 00:10:47;;;;;;;22.07;6.63;;;6.70;47.50;;;;;;5019218;28;20496;-76
2021/04/03 00:13:15;;;;;;;19.13;5.28;;;6.70;46.50;;;;;;4992909;28;20540;-76
2021/04/03 00:15:41;;;;;;;22.70;6.57;;;6.60;46.20;;;;;;5005277;28;20399;-78
2021/04/03 00:18:08;;;;;;;15.60;4.87;;;6.60;47.20;;;;;;5013358;28;20433;-76
2021/04/03 00:20:35;;;;;;;29.42;7.50;;;6.60;48.80;;;;;;5017320;28;20388;-76
2021/04/03 00:23:02;;;;;;;21.90;5.90;;;6.50;50.10;;;;;;5039988;28;20485;-76
2021/04/03 00:25:29;;;;;;;24.08;7.20;;;6.50;51.80;;;;;;5030193;28;20403;-77
2021/04/03 00:27:54;;;;;;;27.65;6.85;;;6.50;52.50;;;;;;5033197;28;20476;-77
2021/04/03 00:30:20;;;;;;;26.10;7.00;;;6.50;53.10;;;;;;5020705;28;20467;-77
2021/04/03 00:33:01;;;;;;;33.05;7.80;;;6.40;53.90;;;;;;5022008;28;20385;-76
2021/04/03 00:35:29;;;;;;;26.10;7.68;;;6.40;54.70;;;;;;5021404;28;20450;-76
2021/04/03 00:37:56;;;;;;;31.47;8.77;;;6.40;54.80;;;;;;5020909;28;20388;-75
2021/04/03 00:40:29;;;;;;;26.50;7.68;;;6.50;55.00;;;;;;5022465;28;20471;-78
2021/04/03 00:42:57;;;;;;;31.98;8.98;;;6.60;54.40;;;;;;5023866;28;20535;-77
2021/04/03 00:45:23;;;;;;;31.27;6.80;;;6.60;53.40;;;;;;5014058;28;20415;-75
2021/04/03 00:47:49;;;;;;;23.48;7.25;;;6.60;51.50;;;;;;5019538;28;20404;-77
2021/04/03 00:50:18;;;;;;;28.30;6.68;;;6.60;51.40;;;;;;5019676;28;20951;-75
2021/04/03 00:52:45;;;;;;;29.38;6.57;;;6.50;50.40;;;;;;5035513;28;20410;-77
2021/04/03 00:55:11;;;;;;;27.45;6.55;;;6.60;49.30;;;;;;5049609;28;20400;-77
2021/04/03 00:57:37;;;;;;;26.70;6.25;;;6.60;48.40;;;;;;5040523;28;20406;-77
2021/04/03 01:00:06;;;;;;;24.80;6.13;;;6.70;47.50;;;;;;5054726;28;20398;-77
2021/04/03 01:02:32;;;;;;;24.67;5.60;;;6.70;46.50;;;;;;5055534;28;20398;-77
2021/04/03 01:05:00;;;;;;;24.60;7.15;;;6.80;45.80;;;;;;5043098;28;20408;-77
2021/04/03 01:07:25;;;;;;;22.02;6.10;;;6.90;45.60;;;;;;5022982;28;20411;-78
2021/04/03 01:09:51;;;;;;;21.83;5.97;;;6.90;45.10;;;;;;5032256;28;20394;-76
2021/04/03 01:12:25;;;;;;;33.23;6.83;;;6.90;44.70;;;;;;5041498;28;20509;-76
2021/04/03 01:15:06;;;;;;;29.00;6.17;;;7.00;44.00;;;;;;5034764;28;20796;-77
2021/04/03 01:18:12;;;;;;;23.27;6.90;;;7.10;43.20;;;;;;5037126;28;20386;-77
2021/04/03 01:20:48;;;;;;;21.77;6.82;;;7.10;42.70;;;;;;4956900;28;20409;-77
2021/04/03 01:24:02;;;;;;;28.43;7.93;;;7.00;43.40;;;;;;5009683;28;20396;-78
2021/04/03 01:26:46;;;;;;;27.48;7.75;;;7.00;43.20;;;;;;4964660;28;20456;-76
2021/04/03 01:29:36;;;;;;;21.95;6.95;;;7.10;43.80;;;;;;4998085;28;20414;-77
2021/04/03 01:32:04;;;;;;;31.02;5.57;;;7.20;43.40;;;;;;5011303;28;20489;-77
2021/04/03 01:34:32;;;;;;;13.60;4.00;;;7.00;43.50;;;;;;5025673;28;20407;-79
2021/04/03 01:37:02;;;;;;;9.65;3.10;;;6.70;49.60;;;;;;4995368;28;20401;-77
2021/04/03 01:39:30;;;;;;;18.90;4.10;;;6.40;49.70;;;;;;4995192;28;20395;-77
2021/04/03 01:42:00;;;;;;;16.53;3.60;;;6.30;51.60;;;;;;5022838;28;20399;-75
2021/04/03 01:44:36;;;;;;;16.05;4.25;;;6.30;52.30;;;;;;5049267;28;20399;-77
2021/04/03 01:47:02;;;;;;;12.43;3.80;;;6.30;52.00;;;;;;5026332;28;20388;-76
2021/04/03 01:49:29;;;;;;;20.45;3.90;;;6.20;54.80;;;;;;5034353;28;20385;-77
2021/04/03 01:51:56;;;;;;;15.05;3.65;;;6.20;54.50;;;;;;5017927;28;20401;-76
2021/04/03 01:54:24;;;;;;;16.77;4.70;;;6.30;50.60;;;;;;5018150;28;20500;-77
2021/04/03 01:56:52;;;;;;;17.23;4.30;;;6.30;48.70;;;;;;5033970;28;20395;-78
2021/04/03 01:59:18;;;;;;;19.52;4.00;;;6.30;49.60;;;;;;5015213;28;20397;-76
2021/04/03 02:01:46;;;;;;;17.42;4.40;;;6.30;50.00;;;;;;5014977;28;20427;-76
2021/04/03 02:04:14;;;;;;;18.85;5.00;;;6.40;51.00;;;;;;5015323;28;20408;-75
2021/04/03 02:06:44;;;;;;;22.17;4.90;;;6.50;51.00;;;;;;5012690;28;20619;-75
2021/04/03 02:09:13;;;;;;;19.33;5.80;;;6.50;50.80;;;;;;5019338;28;21010;-76
2021/04/03 02:11:44;;;;;;;18.42;5.10;;;6.60;50.50;;;;;;5023577;28;20427;-76
2021/04/03 02:14:10;;;;;;;20.58;5.68;;;6.60;50.60;;;;;;5014076;28;20381;-75
2021/04/03 02:16:36;;;;;;;21.55;6.63;;;6.60;49.80;;;;;;5014398;28;20873;-76
2021/04/03 02:19:07;;;;;;;22.50;5.60;;;6.60;50.10;;;;;;5014977;28;20425;-77
2021/04/03 02:21:34;;;;;;;19.65;5.60;;;6.70;49.90;;;;;;5013700;28;20407;-76
2021/04/03 02:24:01;;;;;;;18.77;5.47;;;6.70;49.30;;;;;;5013231;28;20754;-77
2021/04/03 02:26:35;;;;;;;21.65;5.35;;;6.70;48.10;;;;;;5013085;28;20456;-76
2021/04/03 02:29:05;;;;;;;17.58;4.47;;;6.70;45.40;;;;;;5014092;28;20408;-77
2021/04/03 02:31:32;;;;;;;20.38;4.70;;;6.70;44.50;;;;;;5014467;28;20385;-76
2021/04/03 02:33:58;;;;;;;21.50;4.38;;;6.70;42.60;;;;;;5014224;28;20443;-76
2021/04/03 02:36:24;;;;;;;32.23;5.10;;;6.70;39.80;;;;;;5013551;28;20397;-77
2021/04/03 02:38:50;;;;;;;20.77;4.40;;;6.70;39.70;;;;;;5024160;28;20402;-76
2021/04/03 02:41:22;;;;;;;23.20;4.20;;;6.70;38.60;;;;;;5032117;28;20880;-77
2021/04/03 02:44:08;;;;;;;22.08;5.30;;;6.70;36.90;;;;;;5027179;28;20911;-77
2021/04/03 02:46:45;;;;;;;19.02;4.55;;;6.70;35.10;;;;;;5036009;28;20403;-77
2021/04/03 02:49:41;;;;;;;30.10;4.70;;;6.70;35.30;;;;;;5032850;28;20407;-76
2021/04/03 02:52:09;;;;;;;16.83;3.67;;;6.80;34.20;;;;;;5032315;28;20484;-76
2021/04/03 02:54:35;;;;;;;22.70;4.10;;;6.80;32.90;;;;;;5017417;28;20396;-76
2021/04/03 02:57:02;;;;;;;18.52;4.32;;;6.80;32.80;;;;;;5020210;28;20398;-77
2021/04/03 02:59:32;;;;;;;19.35;4.32;;;6.80;32.60;;;;;;5028621;28;20410;-76
2021/04/03 03:02:00;;;;;;;18.70;3.38;;;6.90;32.30;;;;;;5028515;28;20420;-77
2021/04/03 03:04:27;;;;;;;21.55;4.47;;;6.80;32.50;;;;;;5015466;28;20400;-77
2021/04/03 03:06:54;;;;;;;18.08;4.55;;;6.90;32.90;;;;;;5015456;28;20431;-77
2021/04/03 03:09:21;;;;;;;19.40;4.13;;;6.90;33.20;;;;;;5022001;28;20401;-76
2021/04/03 03:11:50;;;;;;;33.08;4.90;;;6.90;33.20;;;;;;5021065;28;20400;-75
2021/04/03 03:14:16;;;;;;;24.02;4.60;;;6.90;32.80;;;;;;5012693;28;20387;-76
2021/04/03 03:16:44;;;;;;;29.92;5.18;;;6.90;33.10;;;;;;5012231;28;20933;-76
2021/04/03 03:19:11;;;;;;;27.33;4.20;;;6.90;33.20;;;;;;5018326;28;20391;-76
2021/04/03 03:21:38;;;;;;;18.67;3.92;;;6.80;33.00;;;;;;5029281;28;20475;-76
2021/04/03 03:24:06;;;;;;;28.13;4.40;;;6.90;33.30;;;;;;5012694;28;20888;-77
2021/04/03 03:26:34;;;;;;;30.10;4.15;;;6.80;33.40;;;;;;5012795;28;20401;-77
2021/04/03 03:29:02;;;;;;;18.45;4.60;;;6.90;33.20;;;;;;5029148;28;20423;-76
2021/04/03 03:31:27;;;;;;;26.15;4.93;;;6.80;33.90;;;;;;5020492;28;20697;-76
2021/04/03 03:33:53;;;;;;;22.27;3.88;;;6.80;34.50;;;;;;5011358;28;20405;-76
2021/04/03 03:36:20;;;;;;;23.85;4.43;;;6.70;35.10;;;;;;5012484;28;20451;-76
2021/04/03 03:38:45;;;;;;;20.75;4.10;;;6.70;35.60;;;;;;5014028;28;20395;-76
2021/04/03 03:41:12;;;;;;;25.20;4.43;;;6.70;36.40;;;;;;5017614;28;20474;-76
2021/04/03 03:43:38;;;;;;;23.08;5.47;;;6.70;36.40;;;;;;5024715;28;20394;-76
2021/04/03 03:46:06;;;;;;;20.88;4.47;;;6.70;36.50;;;;;;5014000;28;20404;-77
2021/04/03 03:48:32;;;;;;;28.15;4.20;;;6.80;36.50;;;;;;5012424;28;20941;-76
2021/04/03 03:50:58;;;;;;;35.00;5.30;;;6.70;36.20;;;;;;5013729;28;20458;-77
2021/04/03 03:53:24;;;;;;;22.27;4.55;;;6.80;36.90;;;;;;5015120;28;20487;-77
2021/04/03 03:55:49;;;;;;;17.83;4.47;;;6.80;36.30;;;;;;5019490;28;20383;-76
2021/04/03 03:58:15;;;;;;;22.27;4.70;;;6.80;36.60;;;;;;5021290;28;20511;-76
2021/04/03 04:00:41;;;;;;;21.50;4.50;;;6.80;36.60;;;;;;5031581;28;20394;-77
2021/04/03 04:03:06;;;;;;;23.73;4.00;;;6.80;36.30;;;;;;5018865;28;20808;-76
2021/04/03 04:05:32;;;;;;;19.17;4.20;;;6.80;35.70;;;;;;5030488;28;20792;-77
2021/04/03 04:08:00;;;;;;;27.02;4.30;;;6.80;36.60;;;;;;5020619;28;20408;-77
2021/04/03 04:10:26;;;;;;;20.33;3.63;;;6.80;36.10;;;;;;5012933;28;20878;-77
2021/04/03 04:12:52;;;;;;;27.90;4.07;;;6.80;36.70;;;;;;5022904;28;20449;-77
2021/04/03 04:15:17;;;;;;;25.53;5.00;;;6.70;37.50;;;;;;5017126;28;20427;-77
2021/04/03 04:17:43;;;;;;;21.60;4.40;;;6.70;37.60;;;;;;5012027;28;20406;-75
2021/04/03 04:20:09;;;;;;;23.37;4.50;;;6.70;38.00;;;;;;5023336;28;20401;-76
2021/04/03 04:22:35;;;;;;;19.33;4.20;;;6.70;37.30;;;;;;5030215;28;20475;-77
2021/04/03 04:25:00;;;;;;;22.33;4.30;;;6.70;36.80;;;;;;5031505;28;20391;-75
2021/04/03 04:27:26;;;;;;;22.42;3.60;;;6.70;36.60;;;;;;5027904;28;20411;-75
2021/04/03 04:29:51;;;;;;;17.83;4.13;;;6.60;35.30;;;;;;5019447;28;20395;-75
2021/04/03 04:32:17;;;;;;;17.90;4.28;;;6.60;36.10;;;;;;5025171;28;20407;-75
2021/04/03 04:34:43;;;;;;;22.70;4.90;;;6.60;37.00;;;;;;5010309;28;20541;-75
2021/04/03 04:37:08;;;;;;;18.23;4.20;;;6.60;37.60;;;;;;5011991;28;21119;-75
2021/04/03 04:39:34;;;;;;;28.50;4.80;;;6.60;37.10;;;;;;5021300;28;20405;-76
2021/04/03 04:41:59;;;;;;;25.77;5.30;;;6.60;38.00;;;;;;5026276;28;20944;-76
2021/04/03 04:44:25;;;;;;;16.87;4.23;;;6.60;38.70;;;;;;5011182;28;20456;-75
2021/04/03 04:46:50;;;;;;;21.90;4.70;;;6.80;38.40;;;;;;5011855;28;20392;-75
2021/04/03 04:49:16;;;;;;;21.60;4.82;;;6.70;39.00;;;;;;5010520;28;20447;-75
2021/04/03 04:51:41;;;;;;;29.25;8.70;;;6.80;41.30;;;;;;5010125;28;20401;-75
2021/04/03 04:54:07;;;;;;;24.10;4.50;;;6.70;39.30;;;;;;5010284;28;20392;-75
2021/04/03 04:56:33;;;;;;;25.38;4.38;;;6.90;37.70;;;;;;5009567;28;20906;-75
2021/04/03 04:58:58;;;;;;;25.63;4.53;;;6.80;38.40;;;;;;5010518;28;20447;-75
2021/04/03 05:01:24;;;;;;;24.13;4.93;;;6.80;39.40;;;;;;5021325;28;20470;-75
2021/04/03 05:03:49;;;;;;;26.23;4.63;;;6.80;41.40;;;;;;5012838;28;20404;-75
2021/04/03 05:06:15;;;;;;;22.83;4.90;;;6.90;40.30;;;;;;5011855;28;20397;-75
2021/04/03 05:08:40;;;;;;;24.30;5.30;;;6.90;40.40;;;;;;5033505;28;20407;-75
2021/04/03 05:11:06;;;;;;;30.10;4.80;;;7.00;40.40;;;;;;5020840;28;20391;-75
2021/04/03 05:13:31;;;;;;;27.80;5.00;;;6.90;39.60;;;;;;5019868;28;20856;-76
2021/04/03 05:15:57;;;;;;;23.00;4.33;;;6.90;40.30;;;;;;5014130;28;20439;-77
2021/04/03 05:18:22;;;;;;;24.97;4.87;;;6.90;42.40;;;;;;5014776;28;20388;-77
2021/04/03 05:20:48;;;;;;;17.73;4.60;;;7.00;40.50;;;;;;5015892;28;20395;-77
2021/04/03 05:23:19;;;;;;;20.60;4.75;;;7.00;39.20;;;;;;5022068;28;20411;-77
2021/04/03 05:25:45;;;;;;;23.23;5.30;;;7.00;40.70;;;;;;5014666;28;20385;-77
2021/04/03 05:28:10;;;;;;;20.35;4.97;;;7.10;41.50;;;;;;5014854;28;20414;-77
2021/04/03 05:30:36;;;;;;;23.57;4.87;;;7.10;39.00;;;;;;5014292;28;20388;-77
2021/04/03 05:33:02;;;;;;;24.27;4.70;;;7.10;39.00;;;;;;5013787;28;20425;-77
2021/04/03 05:35:28;;;;;;;21.83;4.63;;;7.10;40.00;;;;;;5014033;28;20432;-77
2021/04/03 05:37:54;;;;;;;20.15;4.70;;;7.20;38.80;;;;;;5014517;28;20404;-76
2021/04/03 05:40:19;;;;;;;23.13;4.90;;;7.20;40.60;;;;;;5014053;28;20401;-78
2021/04/03 05:42:47;;;;;;;22.35;5.22;;;7.40;39.80;;;;;;5016311;28;20397;-79
2021/04/03 05:45:16;;;;;;;20.73;4.70;;;7.50;38.50;;;;;;5015224;28;20425;-76
2021/04/03 05:47:42;;;;;;;26.10;4.45;;;7.50;37.00;;;;;;5015306;28;20483;-76
2021/04/03 05:50:10;;;;;;;31.00;5.70;;;7.40;37.80;;;;;;5012925;28;20877;-76
2021/04/03 05:52:36;;;;;;;25.13;5.35;;;7.20;39.50;;;;;;5014401;28;20497;-79
2021/04/03 05:55:03;;;;;;;31.08;5.70;;;7.00;40.10;;;;;;5028653;28;20434;-75
2021/04/03 05:57:29;;;;;;;38.95;7.63;;;6.90;41.70;;;;;;5015376;28;20396;-75
2021/04/03 05:59:55;;;;;;;26.42;4.97;;;6.80;43.60;;;;;;5013919;28;20392;-75
2021/04/03 06:02:20;;;;;;;24.30;4.85;;;6.70;43.70;;;;;;5015887;28;20405;-75
2021/04/03 06:04:46;;;;;;;23.50;5.30;;;6.60;45.30;;;;;;5015662;28;20468;-75
2021/04/03 06:07:12;;;;;;;18.37;5.43;;;6.60;45.00;;;;;;5015390;28;20398;-75
2021/04/03 06:09:37;;;;;;;30.17;4.80;;;6.60;44.60;;;;;;5020988;28;20392;-75
2021/04/03 06:12:03;;;;;;;26.83;5.97;;;6.50;45.40;;;;;;5023258;28;20391;-75
2021/04/03 06:14:36;;;;;;;29.80;5.50;;;6.40;46.80;;;;;;5026152;28;20429;-74
2021/04/03 06:17:02;;;;;;;18.67;5.43;;;6.40;47.10;;;;;;5030691;28;20430;-76
2021/04/03 06:19:28;;;;;;;32.27;5.60;;;6.40;47.70;;;;;;5018020;28;20752;-75
2021/04/03 06:21:54;;;;;;;29.92;5.13;;;6.50;47.20;;;;;;5013518;28;20483;-75
2021/04/03 06:24:29;;;;;;;22.80;5.23;;;6.50;46.40;;;;;;5029692;28;20430;-75
2021/04/03 06:26:59;;;;;;;22.73;5.18;;;6.50;47.00;;;;;;5029753;28;20868;-75
2021/04/03 06:29:31;;;;;;;25.60;4.97;;;6.50;47.00;;;;;;5013260;28;20488;-75
2021/04/03 06:32:00;;;;;;;19.20;4.97;;;6.60;46.00;;;;;;5014004;28;20385;-75
2021/04/03 06:34:30;;;;;;;35.53;6.07;;;6.60;45.60;;;;;;5018066;28;20886;-76
2021/04/03 06:36:56;;;;;;;28.63;5.82;;;6.50;45.70;;;;;;5027853;28;20453;-74
2021/04/03 06:39:22;;;;;;;26.25;5.68;;;6.60;46.80;;;;;;5021220;28;20410;-74
2021/04/03 06:41:48;;;;;;;26.73;5.95;;;6.70;46.00;;;;;;5017797;28;20409;-74
2021/04/03 06:44:14;;;;;;;23.37;5.00;;;6.70;45.90;;;;;;5011527;28;20796;-73
2021/04/03 06:46:44;;;;;;;29.38;5.70;;;6.80;45.70;;;;;;5013532;28;20893;-76
2021/04/03 06:49:11;;;;;;;29.17;6.50;;;6.80;45.90;;;;;;5020169;28;20449;-77
2021/04/03 06:51:37;;;;;;;32.35;6.40;;;6.70;48.00;;;;;;5019306;28;20409;-77
2021/04/03 06:54:04;;;;;;;32.10;4.88;;;6.70;47.60;;;;;;5014890;28;20866;-76
2021/04/03 06:56:33;;;;;;;31.97;6.90;;;6.80;45.90;;;;;;5019076;28;20393;-76
2021/04/03 06:59:04;;;;;;;31.83;7.20;;;6.90;46.40;;;;;;5017365;28;20483;-77
2021/04/03 07:01:38;;;;;;;33.15;5.97;;;6.90;46.60;;;;;;5014708;28;20492;-76
2021/04/03 07:04:09;;;;;;;28.38;6.18;;;7.00;45.80;;;;;;5013046;28;20466;-76
2021/04/03 07:06:37;;;;;;;35.65;6.18;;;7.20;44.90;;;;;;5022079;28;20441;-74
2021/04/03 07:09:05;;;;;;;30.45;5.78;;;7.20;43.60;;;;;;5037474;28;20447;-75
2021/04/03 07:14:07;;;;;;;36.22;6.30;;;7.20;44.50;;;;;;5631847;22;20429;-79
2021/04/03 07:16:34;;;;;;;28.40;5.60;;;7.30;42.70;;;;;;5042391;28;20401;-74
2021/04/03 07:19:04;;;;;;;31.98;6.40;;;7.30;41.60;;;;;;5051347;28;20413;-73
2021/04/03 07:21:30;;;;;;;34.40;6.45;;;7.40;41.80;;;;;;5052163;28;20385;-74
2021/04/03 07:23:59;;;;;;;20.53;5.37;;;7.40;40.30;;;;;;5052237;28;20800;-74
2021/04/03 07:26:24;;;;;;;31.13;6.20;;;7.50;40.10;;;;;;5031119;28;20482;-74
2021/04/03 07:28:50;;;;;;;24.77;5.97;;;7.50;39.20;;;;;;5055522;28;20504;-74
2021/04/03 07:31:41;;;;;;;25.35;6.20;;;7.60;38.00;;;;;;5051032;28;20738;-73
2021/04/03 07:34:08;;;;;;;31.75;6.07;;;7.90;37.20;;;;;;5046304;28;20488;-73
2021/04/03 07:36:40;;;;;;;34.77;6.13;;;8.00;35.70;;;;;;5053697;28;20467;-74
2021/04/03 07:39:25;;;;;;;35.22;5.70;;;8.10;35.20;;;;;;5062777;28;20827;-75
2021/04/03 07:41:50;;;;;;;30.77;6.28;;;8.20;33.40;;;;;;5032675;28;20766;-74
2021/04/03 07:44:16;;;;;;;26.23;5.50;;;8.20;33.00;;;;;;5051326;28;20403;-75
2021/04/03 07:46:46;;;;;;;32.50;6.53;;;8.00;32.60;;;;;;5042402;28;20402;-77
2021/04/03 07:49:32;;;;;;;28.50;5.85;;;7.90;33.70;;;;;;5044899;28;20468;-76
2021/04/03 07:51:58;;;;;;;26.42;6.05;;;7.80;33.40;;;;;;5052077;28;20938;-76
2021/04/03 07:54:28;;;;;;;22.27;5.70;;;7.90;32.80;;;;;;5034944;28;20383;-75
2021/04/03 07:56:57;;;;;;;28.95;6.82;;;8.10;32.40;;;;;;5044911;28;20480;-76
2021/04/03 07:59:44;;;;;;;24.38;5.80;;;8.30;32.30;;;;;;5057954;28;20411;-77
2021/04/03 08:02:15;;;;;;;29.55;5.95;;;8.60;30.70;;;;;;5053149;28;20397;-75
2021/04/03 08:04:41;;;;;;;24.73;5.78;;;8.70;27.80;;;;;;5024160;28;20430;-77
2021/04/03 08:07:07;;;;;;;30.23;6.50;;;8.60;27.50;;;;;;5014451;28;20453;-76
2021/04/03 08:09:35;;;;;;;31.02;5.90;;;8.80;27.10;;;;;;5022162;28;20916;-76
2021/04/03 08:12:00;;;;;;;30.70;6.40;;;8.50;27.20;;;;;;5051253;28;20397;-76
2021/04/03 08:14:29;;;;;;;28.80;7.20;;;8.60;28.70;;;;;;5050969;28;20383;-75
2021/04/03 08:16:56;;;;;;;27.58;5.90;;;8.70;28.30;;;;;;5050771;28;20397;-77
2021/04/03 08:19:26;;;;;;;21.60;6.50;;;8.70;27.60;;;;;;5040703;28;20401;-76
2021/04/03 08:21:52;;;;;;;25.65;6.78;;;8.90;26.70;;;;;;5035308;28;20407;-77
2021/04/03 08:24:20;;;;;;;29.92;7.75;;;9.10;26.80;;;;;;5033054;28;20391;-76
2021/04/03 08:26:46;;;;;;;26.63;7.40;;;9.30;27.50;;;;;;5043735;28;20396;-75
2021/04/03 08:29:33;;;;;;;26.57;6.53;;;9.40;24.70;;;;;;5032977;28;20770;-75
2021/04/03 08:32:00;;;;;;;25.73;6.60;;;9.10;25.80;;;;;;5051374;28;20792;-75
2021/04/03 08:34:26;;;;;;;33.55;7.30;;;8.90;26.90;;;;;;5032752;28;20746;-75
2021/04/03 08:36:53;;;;;;;25.85;6.43;;;9.10;26.40;;;;;;5045330;28;20790;-77
2021/04/03 08:39:20;;;;;;;26.33;5.60;;;9.00;25.70;;;;;;5031995;28;20383;-76
2021/04/03 08:41:49;;;;;;;22.73;6.22;;;8.90;25.70;;;;;;5034134;28;20410;-77
2021/04/03 08:44:19;;;;;;;28.55;7.18;;;9.00;26.10;;;;;;5035270;28;20394;-77
2021/04/03 08:46:47;;;;;;;21.27;5.03;;;9.10;26.40;;;;;;5047567;28;20437;-76
2021/04/03 08:49:24;;;;;;;19.45;6.13;;;9.00;24.60;;;;;;5058164;28;20404;-76
2021/04/03 08:51:50;;;;;;;23.63;5.82;;;9.00;25.90;;;;;;5059235;28;20393;-78
2021/04/03 08:54:16;;;;;;;29.10;6.10;;;9.30;24.40;;;;;;5059554;28;20374;-78
2021/04/03 08:56:41;;;;;;;28.10;6.63;;;9.10;24.00;;;;;;5062094;28;20809;-78
2021/04/03 08:59:12;;;;;;;23.77;6.20;;;9.00;24.90;;;;;;5081269;28;20468;-77
2021/04/03 09:01:42;;;;;;;22.40;5.15;;;8.80;26.30;;;;;;5087636;28;20383;-75
2021/04/03 09:04:08;;;;;;;20.35;6.00;;;8.80;26.50;;;;;;5066887;28;20389;-76
2021/04/03 09:06:50;;;;;;;25.92;5.85;;;9.00;26.40;;;;;;5049559;28;20397;-76
2021/04/03 09:09:15;;;;;;;24.02;6.40;;;9.10;25.50;;;;;;5061835;28;20457;-76
2021/04/03 09:12:05;;;;;;;25.08;6.10;;;9.00;26.80;;;;;;5063409;28;20378;-76
2021/04/03 09:14:35;;;;;;;23.88;7.20;;;9.10;26.50;;;;;;5046830;28;20395;-76
2021/04/03 09:17:04;;;;;;;31.45;7.50;;;9.20;26.50;;;;;;5067466;28;20396;-76
2021/04/03 09:19:30;;;;;;;22.02;6.30;;;9.10;26.50;;;;;;5068603;28;20408;-76
2021/04/03 09:21:57;;;;;;;24.98;6.78;;;9.10;26.80;;;;;;5069059;28;20402;-77
2021/04/03 09:24:31;;;;;;;37.17;7.13;;;9.10;26.80;;;;;;5065508;28;20447;-76
2021/04/03 09:27:14;;;;;;;18.10;7.05;;;9.10;26.50;;;;;;5055327;28;20402;-76
2021/04/03 09:29:42;;;;;;;33.90;7.20;;;9.20;27.20;;;;;;5028026;28;20389;-76
2021/04/03 09:32:10;;;;;;;22.02;5.18;;;9.40;25.80;;;;;;5056574;28;20386;-78
2021/04/03 09:34:36;;;;;;;27.10;6.40;;;9.20;26.70;;;;;;5058660;28;20785;-75
2021/04/03 09:37:20;;;;;;;30.67;7.80;;;9.30;27.90;;;;;;5046820;28;20445;-74
2021/04/03 09:39:51;;;;;;;20.55;7.18;;;9.50;27.40;;;;;;5050793;28;20385;-75
2021/04/03 09:42:19;;;;;;;29.10;7.35;;;9.80;25.80;;;;;;5043330;28;20388;-76
2021/04/03 09:44:45;;;;;;;17.75;6.50;;;9.90;25.80;;;;;;5056360;28;20424;-76
2021/04/03 09:47:11;;;;;;;33.25;8.00;;;9.80;25.90;;;;;;5054964;28;20511;-77
2021/04/03 09:49:40;;;;;;;21.17;5.85;;;10.10;25.50;;;;;;5037574;28;20393;-76
2021/04/03 09:52:07;;;;;;;26.48;6.47;;;9.70;25.40;;;;;;5053967;28;20404;-76
2021/04/03 09:54:33;;;;;;;27.65;7.50;;;9.50;27.10;;;;;;5053088;28;20397;-76
2021/04/03 09:57:01;;;;;;;19.67;6.20;;;9.40;27.90;;;;;;5054912;28;20424;-77
2021/04/03 09:59:27;;;;;;;29.05;7.20;;;9.30;28.50;;;;;;5075854;28;20400;-76
2021/04/03 10:01:54;;;;;;;28.23;7.78;;;9.30;28.70;;;;;;5074618;28;20387;-76
2021/04/03 10:04:19;;;;;;;32.72;7.80;;;9.10;29.20;;;;;;5052912;28;20401;-76
2021/04/03 10:06:45;;;;;;;30.30;7.97;;;9.10;29.30;;;;;;5036879;28;20762;-76
2021/04/03 10:09:11;;;;;;;32.17;8.00;;;9.30;30.50;;;;;;5056104;28;20398;-76
2021/04/03 10:11:37;;;;;;;28.37;7.90;;;9.30;29.50;;;;;;5042019;28;20417;-75
2021/04/03 10:14:02;;;;;;;28.97;7.93;;;9.20;30.00;;;;;;5040337;28;20418;-76
2021/04/03 10:16:28;;;;;;;23.53;7.50;;;9.20;30.30;;;;;;5059370;28;20401;-77
2021/04/03 10:18:54;;;;;;;24.50;7.73;;;9.30;30.40;;;;;;5056858;28;20404;-75
2021/04/03 10:21:19;;;;;;;24.33;7.82;;;9.20;29.90;;;;;;5041228;28;20556;-75
2021/04/03 10:23:45;;;;;;;26.73;8.10;;;9.40;29.50;;;;;;5054151;28;20440;-76
2021/04/03 10:26:11;;;;;;;22.30;8.35;;;9.70;28.60;;;;;;5057501;28;20401;-75
2021/04/03 10:28:36;;;;;;;25.93;7.90;;;10.00;27.50;;;;;;5057064;28;20917;-76
2021/04/03 10:31:02;;;;;;;28.17;8.47;;;10.30;27.10;;;;;;5056709;28;20385;-76
2021/04/03 10:33:28;;;;;;;19.87;6.73;;;10.60;25.80;;;;;;5056498;28;20445;-75
2021/04/03 10:35:53;;;;;;;21.60;8.10;;;10.40;25.20;;;;;;5037152;28;20398;-75
2021/04/03 10:38:19;;;;;;;31.90;8.97;;;10.30;26.80;;;;;;5037261;28;20447;-76
2021/04/03 10:40:44;;;;;;;21.53;8.43;;;10.10;26.80;;;;;;5037114;28;20399;-77
2021/04/03 10:43:10;;;;;;;28.47;8.63;;;10.00;27.60;;;;;;5039880;28;20928;-77
2021/04/03 10:45:36;;;;;;;27.93;8.57;;;10.20;27.60;;;;;;5039753;28;20429;-75
2021/04/03 10:48:01;;;;;;;29.13;8.37;;;10.40;26.50;;;;;;5035447;28;20399;-76
2021/04/03 10:50:27;;;;;;;25.37;9.40;;;10.30;27.60;;;;;;5015352;28;20398;-76
2021/04/03 10:52:52;;;;;;;25.03;9.30;;;10.20;26.40;;;;;;5018657;28;20443;-76
2021/04/03 10:55:18;;;;;;;23.83;9.30;;;10.30;25.70;;;;;;5039842;28;20560;-76
2021/04/03 10:57:44;;;;;;;26.50;9.80;;;10.50;24.80;;;;;;5058059;28;20395;-77
2021/04/03 11:00:10;;;;;;;25.70;9.20;;;10.50;26.20;;;;;;5076463;28;20916;-76
2021/04/03 11:02:36;;;;;;;22.20;8.77;;;10.70;24.20;;;;;;5051499;28;20389;-77
2021/04/03 11:05:02;;;;;;;22.87;9.50;;;10.70;24.50;;;;;;5051470;28;20397;-76
2021/04/03 11:07:28;;;;;;;23.33;9.20;;;10.70;24.80;;;;;;5052075;28;20388;-75
2021/04/03 11:09:53;;;;;;;28.40;9.40;;;10.60;24.80;;;;;;5052540;28;20381;-75
2021/04/03 11:12:19;;;;;;;24.27;9.18;;;10.70;24.60;;;;;;5052831;28;20447;-75
2021/04/03 11:14:45;;;;;;;22.75;9.25;;;10.90;23.40;;;;;;5036569;28;20397;-75
2021/04/03 11:17:11;;;;;;;22.38;9.27;;;11.00;22.50;;;;;;5040889;28;20771;-74
2021/04/03 11:19:37;;;;;;;29.67;9.80;;;11.10;22.20;;;;;;5032717;28;20421;-74
2021/04/03 11:22:03;;;;;;;29.20;10.13;;;11.30;23.90;;;;;;5036214;28;20455;-74
2021/04/03 11:24:29;;;;;;;28.33;10.30;;;11.50;22.30;;;;;;5052788;28;20385;-76
2021/04/03 11:26:55;;;;;;;29.60;10.95;;;11.40;20.00;;;;;;5051133;28;20935;-74
2021/04/03 11:29:21;;;;;;;31.20;11.53;;;11.40;21.60;;;;;;5051604;28;20481;-75
2021/04/03 11:31:47;;;;;;;33.77;11.37;;;11.40;21.00;;;;;;5051336;28;20480;-75
2021/04/03 11:34:12;;;;;;;28.90;10.80;;;11.60;20.70;;;;;;5051571;28;20455;-75
2021/04/03 11:36:38;;;;;;;30.48;11.40;;;11.70;20.10;;;;;;5052925;28;20484;-74
2021/04/03 11:39:06;;;;;;;36.88;11.70;;;11.60;20.70;;;;;;5066077;28;20415;-74
2021/04/03 11:41:32;;;;;;;30.75;12.30;;;11.20;22.60;;;;;;5064172;28;20455;-73
2021/04/03 11:43:58;;;;;;;31.23;14.20;;;11.40;23.50;;;;;;5064902;28;20397;-73
2021/04/03 11:46:23;;;;;;;32.53;14.60;;;11.70;21.50;;;;;;5060410;28;20885;-75
2021/04/03 11:48:49;;;;;;;34.60;13.80;;;12.20;19.50;;;;;;5049133;28;20403;-74
2021/04/03 11:51:15;;;;;;;30.13;13.60;;;12.50;18.50;;;;;;5045135;28;20404;-74
2021/04/03 11:53:41;;;;;;;31.75;14.20;;;12.40;18.60;;;;;;5053447;28;20377;-75
2021/04/03 11:56:07;;;;;;;32.92;11.50;;;12.70;18.20;;;;;;5053471;28;20389;-74
2021/04/03 11:58:33;;;;;;;27.27;11.68;;;12.50;17.60;;;;;;5065616;28;20473;-75
2021/04/03 12:00:58;;;;;;;27.30;11.60;;;12.20;18.10;;;;;;5064604;28;20894;-74
2021/04/03 12:03:24;;;;;;;29.30;11.50;;;12.50;17.40;;;;;;5052274;28;20474;-74
2021/04/03 12:05:50;;;;;;;30.40;11.20;;;12.90;17.10;;;;;;5034059;28;20401;-75
2021/04/03 12:08:15;;;;;;;27.95;11.40;;;13.50;15.00;;;;;;5053595;28;20472;-75
2021/04/03 12:10:41;;;;;;;23.10;9.30;;;13.70;14.30;;;;;;5052579;28;20397;-75
2021/04/03 12:13:11;;;;;;;23.90;9.35;;;13.40;13.90;;;;;;5053087;28;20392;-75
2021/04/03 12:15:38;;;;;;;22.27;9.63;;;13.50;14.00;;;;;;5052589;28;20905;-77
2021/04/03 12:18:04;;;;;;;20.42;8.18;;;13.80;13.30;;;;;;5049481;28;20401;-77
2021/04/03 12:20:30;;;;;;;20.83;7.53;;;13.50;13.50;;;;;;5054363;28;20445;-77
2021/04/03 12:22:55;;;;;;;25.10;8.20;;;13.00;14.30;;;;;;5054175;28;20742;-76
2021/04/03 12:25:21;;;;;;;22.73;7.60;;;12.80;14.80;;;;;;5055007;28;20392;-76
2021/04/03 12:27:47;;;;;;;20.57;8.90;;;12.70;15.40;;;;;;5031798;28;20412;-80
2021/04/03 12:30:13;;;;;;;23.58;8.85;;;13.20;15.10;;;;;;5053966;28;20719;-77
2021/04/03 12:32:38;;;;;;;25.98;8.70;;;13.40;14.50;;;;;;5056946;28;20373;-77
2021/04/03 12:35:06;;;;;;;26.70;10.77;;;13.40;14.50;;;;;;5056334;28;20387;-76
2021/04/03 12:37:32;;;;;;;16.88;6.72;;;13.50;14.30;;;;;;5052429;28;20395;-77
2021/04/03 12:39:57;;;;;;;17.35;6.93;;;13.40;12.30;;;;;;5047765;28;20419;-77
2021/04/03 12:42:23;;;;;;;15.65;7.20;;;13.10;12.90;;;;;;5051676;28;20386;-76
2021/04/03 12:44:49;;;;;;;11.77;5.57;;;13.20;11.80;;;;;;5051744;28;20377;-76
2021/04/03 12:47:14;;;;;;;17.48;6.80;;;13.20;11.80;;;;;;5050739;28;20814;-76
2021/04/03 12:49:40;;;;;;;21.55;7.10;;;13.20;12.90;;;;;;5050231;28;20420;-76